Time,TemperatureF,DewpointF,PressureIn,WindDirection,WindDirectionDegrees,WindSpeedMPH,WindSpeedGustMPH,Humidity,HourlyPrecipIn,Conditions,Clouds,dailyrainin,SoftwareType,DateUTC
2013-05-12 00:00:00,60.5,56.9,29.71,East,96,1.0,1.0,88,0.00,,,0.44,Wunderground v.1.15,2013-05-12 04:00:00,
2013-05-12 00:10:00,60.3,56.4,29.71,ESE,120,2.0,8.0,87,0.00,,,0.44,Wunderground v.1.15,2013-05-12 04:10:00,
2013-05-12 00:20:00,60.3,56.1,29.71,ESE,116,3.0,8.0,86,0.00,,,0.44,Wunderground v.1.15,2013-05-12 04:20:00,
2013-05-12 00:25:00,60.3,56.1,29.71,ESE,120,4.0,8.0,86,0.00,,,0.44,Wunderground v.1.15,2013-05-12 04:25:00,
2013-05-12 00:30:00,60.2,56.3,29.71,SE,124,3.0,3.0,87,0.00,,,0.44,Wunderground v.1.15,2013-05-12 04:30:00,
2013-05-12 00:35:00,60.1,56.2,29.71,SE,134,3.0,7.0,87,0.00,,,0.44,Wunderground v.1.15,2013-05-12 04:35:00,
2013-05-12 00:40:00,59.9,56.0,29.71,ESE,120,3.0,7.0,87,0.00,,,0.44,Wunderground v.1.15,2013-05-12 04:40:00,
2013-05-12 00:45:00,59.8,55.9,29.70,SE,134,3.0,7.0,87,0.00,,,0.44,Wunderground v.1.15,2013-05-12 04:45:00,
2013-05-12 00:55:00,59.6,55.4,29.70,ESE,120,3.0,7.0,86,0.00,,,0.44,Wunderground v.1.15,2013-05-12 04:55:00,
2013-05-12 01:00:00,59.5,55.3,29.70,SE,129,3.0,3.0,86,0.00,,,0.44,Wunderground v.1.15,2013-05-12 05:00:00,
2013-05-12 01:10:00,59.2,55.3,29.70,East,82,1.0,6.0,87,0.00,,,0.44,Wunderground v.1.15,2013-05-12 05:10:00,
2013-05-12 01:20:00,59.1,55.2,29.69,ESE,107,0.0,6.0,87,0.00,,,0.44,Wunderground v.1.15,2013-05-12 05:20:00,
2013-05-12 01:25:00,58.9,55.0,29.69,ESE,107,0.0,6.0,87,0.00,,,0.44,Wunderground v.1.15,2013-05-12 05:25:00,
2013-05-12 01:35:00,58.8,54.9,29.69,East,86,0.0,5.0,87,0.00,,,0.44,Wunderground v.1.15,2013-05-12 05:35:00,
2013-05-12 01:40:00,58.8,54.6,29.68,ESE,108,1.0,5.0,86,0.00,,,0.44,Wunderground v.1.15,2013-05-12 05:40:00,
2013-05-12 01:45:00,58.7,54.8,29.68,ESE,111,1.0,5.0,87,0.00,,,0.44,Wunderground v.1.15,2013-05-12 05:45:00,
2013-05-12 01:55:00,58.9,54.4,29.68,ESE,104,3.0,5.0,85,0.00,,,0.44,Wunderground v.1.15,2013-05-12 05:55:00,
2013-05-12 02:00:00,58.9,54.4,29.68,SE,126,3.0,7.0,85,0.00,,,0.44,Wunderground v.1.15,2013-05-12 06:00:00,
2013-05-12 02:10:00,58.8,54.0,29.69,ESE,116,4.0,4.0,84,0.00,,,0.44,Wunderground v.1.15,2013-05-12 06:10:00,
2013-05-12 02:15:00,58.8,54.3,29.69,East,86,3.0,7.0,85,0.00,,,0.44,Wunderground v.1.15,2013-05-12 06:15:00,
2013-05-12 02:20:00,58.7,54.2,29.69,ESE,121,2.0,7.0,85,0.00,,,0.44,Wunderground v.1.15,2013-05-12 06:20:00,
2013-05-12 02:30:00,58.7,54.2,29.69,East,84,2.0,7.0,85,0.00,,,0.44,Wunderground v.1.15,2013-05-12 06:30:00,
2013-05-12 02:40:00,58.5,54.0,29.69,ENE,76,2.0,7.0,85,0.00,,,0.44,Wunderground v.1.15,2013-05-12 06:40:00,
2013-05-12 02:45:00,58.5,54.0,29.69,ESE,102,2.0,7.0,85,0.00,,,0.44,Wunderground v.1.15,2013-05-12 06:45:00,
2013-05-12 02:55:00,58.2,54.0,29.68,East,99,2.0,7.0,86,0.00,,,0.44,Wunderground v.1.15,2013-05-12 06:55:00,
2013-05-12 03:00:00,58.0,53.8,29.68,ESE,116,2.0,5.0,86,0.00,,,0.44,Wunderground v.1.15,2013-05-12 07:00:00,
2013-05-12 03:10:00,57.9,53.4,29.69,SE,139,3.0,5.0,85,0.00,,,0.44,Wunderground v.1.15,2013-05-12 07:10:00,
2013-05-12 03:15:00,58.0,53.5,29.69,ESE,117,3.0,5.0,85,0.00,,,0.44,Wunderground v.1.15,2013-05-12 07:15:00,
2013-05-12 03:20:00,58.2,53.4,29.68,SE,141,4.0,7.0,84,0.00,,,0.44,Wunderground v.1.15,2013-05-12 07:20:00,
2013-05-12 03:25:00,58.2,53.1,29.69,SE,134,4.0,7.0,83,0.00,,,0.44,Wunderground v.1.15,2013-05-12 07:25:00,
2013-05-12 03:35:00,58.0,52.9,29.68,ESE,114,3.0,6.0,83,0.00,,,0.44,Wunderground v.1.15,2013-05-12 07:35:00,
2013-05-12 03:40:00,57.9,52.4,29.68,SE,142,3.0,10.0,82,0.00,,,0.44,Wunderground v.1.15,2013-05-12 07:40:00,
2013-05-12 03:50:00,57.9,52.1,29.68,SE,124,4.0,10.0,81,0.00,,,0.44,Wunderground v.1.15,2013-05-12 07:50:00,
2013-05-12 04:00:00,57.6,51.8,29.68,SE,136,4.0,4.0,81,0.00,,,0.00,Wunderground v.1.15,2013-05-12 08:00:00,
2013-05-12 04:10:00,57.2,51.4,29.69,SSE,153,3.0,9.0,81,0.00,,,0.00,Wunderground v.1.15,2013-05-12 08:10:00,
2013-05-12 04:20:00,56.8,50.4,29.69,SE,141,5.0,5.0,79,0.00,,,0.00,Wunderground v.1.15,2013-05-12 08:20:00,
2013-05-12 04:30:00,56.3,50.5,29.70,SE,129,1.0,1.0,81,0.00,,,0.00,Wunderground v.1.15,2013-05-12 08:30:00,
2013-05-12 04:40:00,55.8,50.4,29.70,ESE,113,0.0,10.0,82,0.00,,,0.00,Wunderground v.1.15,2013-05-12 08:40:00,
2013-05-12 04:45:00,55.5,50.1,29.70,ESE,115,1.0,10.0,82,0.00,,,0.00,Wunderground v.1.15,2013-05-12 08:45:00,
2013-05-12 04:55:00,55.3,49.6,29.70,ESE,109,1.0,3.0,81,0.00,,,0.00,Wunderground v.1.15,2013-05-12 08:55:00,
2013-05-12 05:00:00,55.2,49.1,29.70,ESE,117,3.0,3.0,80,0.00,,,0.00,Wunderground v.1.15,2013-05-12 09:00:00,
2013-05-12 05:10:00,55.2,48.5,29.70,SE,124,3.0,4.0,78,0.00,,,0.00,Wunderground v.1.15,2013-05-12 09:10:00,
2013-05-12 05:20:00,54.9,48.2,29.70,ESE,120,2.0,2.0,78,0.00,,,0.00,Wunderground v.1.15,2013-05-12 09:20:00,
2013-05-12 05:25:00,54.6,47.9,29.71,ESE,116,2.0,4.0,78,0.00,,,0.00,Wunderground v.1.15,2013-05-12 09:25:00,
2013-05-12 05:35:00,54.2,47.8,29.71,ESE,115,0.0,11.0,79,0.00,,,0.00,Wunderground v.1.15,2013-05-12 09:35:00,
2013-05-12 05:40:00,54.0,48.0,29.71,ESE,116,0.0,11.0,80,0.00,,,0.00,Wunderground v.1.15,2013-05-12 09:40:00,
2013-05-12 05:45:00,53.7,47.7,29.71,ESE,116,0.0,11.0,80,0.00,,,0.00,Wunderground v.1.15,2013-05-12 09:45:00,
2013-05-12 05:55:00,53.2,47.5,29.71,ESE,111,0.0,11.0,81,0.00,,,0.00,Wunderground v.1.15,2013-05-12 09:55:00,
2013-05-12 06:00:00,53.0,47.7,29.71,ESE,111,0.0,2.0,82,0.00,,,0.00,Wunderground v.1.15,2013-05-12 10:00:00,
2013-05-12 06:10:00,52.4,47.7,29.71,ESE,111,0.0,2.0,84,0.00,,,0.00,Wunderground v.1.15,2013-05-12 10:10:00,
2013-05-12 06:15:00,52.1,47.7,29.71,ESE,111,0.0,2.0,85,0.00,,,0.00,Wunderground v.1.15,2013-05-12 10:15:00,
2013-05-12 06:20:00,51.7,47.6,29.71,ESE,111,0.0,2.0,86,0.00,,,0.00,Wunderground v.1.15,2013-05-12 10:20:00,
2013-05-12 06:30:00,51.1,47.7,29.72,SW,232,0.0,1.0,88,0.00,,,0.00,Wunderground v.1.15,2013-05-12 10:30:00,
2013-05-12 06:35:00,51.6,48.2,29.72,SW,232,0.0,1.0,88,0.00,,,0.00,Wunderground v.1.15,2013-05-12 10:35:00,
2013-05-12 06:40:00,52.4,48.9,29.72,SW,232,0.0,1.0,88,0.00,,,0.00,Wunderground v.1.15,2013-05-12 10:40:00,
2013-05-12 06:50:00,53.6,48.6,29.72,NE,46,1.0,2.0,83,0.00,,,0.00,Wunderground v.1.15,2013-05-12 10:50:00,
2013-05-12 06:55:00,54.2,48.5,29.72,ENE,60,1.0,2.0,81,0.00,,,0.00,Wunderground v.1.15,2013-05-12 10:55:00,
2013-05-12 07:00:00,54.7,48.6,29.72,ENE,60,1.0,1.0,80,0.00,,,0.00,Wunderground v.1.15,2013-05-12 11:00:00,
2013-05-12 07:10:00,54.3,48.3,29.72,ESE,113,1.0,3.0,80,0.00,,,0.00,Wunderground v.1.15,2013-05-12 11:10:00,
2013-05-12 07:15:00,54.3,48.6,29.72,ESE,113,1.0,3.0,81,0.00,,,0.00,Wunderground v.1.15,2013-05-12 11:15:00,
2013-05-12 07:25:00,54.6,49.2,29.72,ESE,117,1.0,3.0,82,0.00,,,0.00,Wunderground v.1.15,2013-05-12 11:25:00,
2013-05-12 07:30:00,54.5,48.8,29.71,ESE,115,1.0,3.0,81,0.00,,,0.00,Wunderground v.1.15,2013-05-12 11:30:00,
2013-05-12 07:40:00,54.5,48.8,29.71,ESE,114,2.0,2.0,81,0.00,,,0.00,Wunderground v.1.15,2013-05-12 11:40:00,
2013-05-12 07:50:00,55.1,49.4,29.71,ESE,115,2.0,4.0,81,0.00,,,0.00,Wunderground v.1.15,2013-05-12 11:50:00,
2013-05-12 07:55:00,55.3,49.2,29.71,East,97,3.0,4.0,80,0.00,,,0.00,Wunderground v.1.15,2013-05-12 11:55:00,
2013-05-12 08:00:00,55.7,50.0,29.72,East,92,3.0,3.0,81,0.00,,,0.00,Wunderground v.1.15,2013-05-12 12:00:00,
2013-05-12 08:10:00,56.3,49.5,29.72,East,89,5.0,5.0,78,0.00,,,0.00,Wunderground v.1.15,2013-05-12 12:10:00,
2013-05-12 08:15:00,56.5,49.7,29.72,East,86,6.0,6.0,78,0.00,,,0.00,Wunderground v.1.15,2013-05-12 12:15:00,
2013-05-12 08:25:00,56.9,49.8,29.72,ENE,70,6.0,11.0,77,0.00,,,0.00,Wunderground v.1.15,2013-05-12 12:25:00,
2013-05-12 08:35:00,57.2,48.3,29.72,ESE,120,8.0,14.0,72,0.00,,,0.00,Wunderground v.1.15,2013-05-12 12:35:00,
2013-05-12 08:40:00,57.4,48.8,29.72,East,83,8.0,14.0,73,0.00,,,0.00,Wunderground v.1.15,2013-05-12 12:40:00,
2013-05-12 08:50:00,57.4,46.9,29.73,ESE,107,10.0,14.0,68,0.00,,,0.00,Wunderground v.1.15,2013-05-12 12:50:00,
2013-05-12 08:55:00,57.3,45.6,29.73,ESE,116,11.0,14.0,65,0.00,,,0.00,Wunderground v.1.15,2013-05-12 12:55:00,
2013-05-12 09:00:00,57.4,44.9,29.73,SE,124,11.0,23.0,63,0.00,,,0.00,Wunderground v.1.15,2013-05-12 13:00:00,
2013-05-12 09:10:00,57.5,45.0,29.74,ESE,117,9.0,23.0,63,0.00,,,0.00,Wunderground v.1.15,2013-05-12 13:10:00,
2013-05-12 09:20:00,57.8,46.5,29.73,ESE,105,8.0,23.0,66,0.00,,,0.00,Wunderground v.1.15,2013-05-12 13:20:00,
2013-05-12 09:30:00,57.0,43.7,29.74,ESE,121,9.0,18.0,61,0.00,,,0.00,Wunderground v.1.15,2013-05-12 13:30:00,
2013-05-12 09:35:00,56.7,44.2,29.74,ESE,110,11.0,18.0,63,0.00,,,0.00,Wunderground v.1.15,2013-05-12 13:35:00,
2013-05-12 09:40:00,56.8,44.7,29.74,ESE,115,11.0,18.0,64,0.00,,,0.00,Wunderground v.1.15,2013-05-12 13:40:00,
2013-05-12 09:50:00,57.4,44.9,29.73,ESE,117,11.0,11.0,63,0.00,,,0.00,Wunderground v.1.15,2013-05-12 13:50:00,
2013-05-12 09:55:00,57.8,45.3,29.74,East,94,11.0,15.0,63,0.00,,,0.00,Wunderground v.1.15,2013-05-12 13:55:00,
2013-05-12 10:00:00,57.5,43.7,29.74,ESE,113,11.0,21.0,60,0.00,,,0.00,Wunderground v.1.15,2013-05-12 14:00:00,
2013-05-12 10:10:00,56.3,40.3,29.74,SE,127,12.0,21.0,55,0.00,,,0.00,Wunderground v.1.15,2013-05-12 14:10:00,
2013-05-12 10:20:00,56.3,42.1,29.75,SE,124,12.0,12.0,59,0.00,,,0.00,Wunderground v.1.15,2013-05-12 14:20:00,
2013-05-12 10:25:00,56.8,42.2,29.75,ESE,107,11.0,21.0,58,0.00,,,0.00,Wunderground v.1.15,2013-05-12 14:25:00,
2013-05-12 10:35:00,56.6,37.1,29.76,East,95,14.0,14.0,48,0.00,,,0.00,Wunderground v.1.15,2013-05-12 14:35:00,
2013-05-12 10:45:00,56.3,37.4,29.76,SE,125,14.0,15.0,49,0.00,,,0.00,Wunderground v.1.15,2013-05-12 14:45:00,
2013-05-12 10:55:00,56.3,37.9,29.76,SE,125,12.0,27.0,50,0.00,,,0.00,Wunderground v.1.15,2013-05-12 14:55:00,
2013-05-12 11:00:00,56.2,35.1,29.76,ENE,78,13.0,13.0,45,0.00,,,0.00,Wunderground v.1.15,2013-05-12 15:00:00,
2013-05-12 11:10:00,56.1,35.6,29.76,ESE,110,14.0,14.0,46,0.00,,,0.00,Wunderground v.1.15,2013-05-12 15:10:00,
2013-05-12 11:15:00,56.2,35.7,29.76,ESE,114,14.0,20.0,46,0.00,,,0.00,Wunderground v.1.15,2013-05-12 15:15:00,
2013-05-12 11:20:00,56.1,35.0,29.76,ESE,110,14.0,28.0,45,0.00,,,0.00,Wunderground v.1.15,2013-05-12 15:20:00,
2013-05-12 11:30:00,56.1,35.6,29.77,East,90,15.0,25.0,46,0.00,,,0.00,Wunderground v.1.15,2013-05-12 15:30:00,
2013-05-12 11:40:00,56.1,28.8,29.77,SE,124,15.0,25.0,35,0.00,,,0.00,Wunderground v.1.15,2013-05-12 15:40:00,
2013-05-12 11:45:00,56.1,28.8,29.77,ESE,105,15.0,25.0,35,0.00,,,0.00,Wunderground v.1.15,2013-05-12 15:45:00,
2013-05-12 11:50:00,56.0,31.4,29.77,SE,138,14.0,25.0,39,0.00,,,0.00,Wunderground v.1.15,2013-05-12 15:50:00,
2013-05-12 12:00:00,55.9,26.4,29.77,ESE,111,15.0,24.0,32,0.00,,,0.00,Wunderground v.1.15,2013-05-12 16:00:00,
2013-05-12 12:10:00,55.9,29.3,29.77,ESE,107,13.0,13.0,36,0.00,,,0.00,Wunderground v.1.15,2013-05-12 16:10:00,
2013-05-12 12:15:00,56.4,33.0,29.77,SE,132,12.0,24.0,41,0.00,,,0.00,Wunderground v.1.15,2013-05-12 16:15:00,
2013-05-12 12:25:00,56.4,31.7,29.77,East,82,13.0,13.0,39,0.00,,,0.00,Wunderground v.1.15,2013-05-12 16:25:00,
2013-05-12 12:30:00,56.7,30.0,29.77,ESE,105,12.0,12.0,36,0.00,,,0.00,Wunderground v.1.15,2013-05-12 16:30:00,
2013-05-12 12:40:00,56.7,30.7,29.77,ESE,102,13.0,25.0,37,0.00,,,0.00,Wunderground v.1.15,2013-05-12 16:40:00,
2013-05-12 12:45:00,56.6,33.2,29.77,SE,125,15.0,25.0,41,0.00,,,0.00,Wunderground v.1.15,2013-05-12 16:45:00,
2013-05-12 12:50:00,56.7,29.3,29.77,SE,141,14.0,14.0,35,0.00,,,0.00,Wunderground v.1.15,2013-05-12 16:50:00,
2013-05-12 13:00:00,56.9,32.2,29.77,ESE,121,12.0,25.0,39,0.00,,,0.00,Wunderground v.1.15,2013-05-12 17:00:00,
2013-05-12 13:10:00,57.1,31.0,29.77,ESE,112,13.0,13.0,37,0.00,,,0.00,Wunderground v.1.15,2013-05-12 17:10:00,
2013-05-12 13:15:00,57.1,31.7,29.78,ESE,113,13.0,25.0,38,0.00,,,0.00,Wunderground v.1.15,2013-05-12 17:15:00,
2013-05-12 13:25:00,57.5,34.6,29.78,East,81,12.0,25.0,42,0.00,,,0.00,Wunderground v.1.15,2013-05-12 17:25:00,
2013-05-12 13:30:00,57.1,30.4,29.78,ESE,111,14.0,24.0,36,0.00,,,0.00,Wunderground v.1.15,2013-05-12 17:30:00,
2013-05-12 13:40:00,57.3,31.9,29.78,ESE,121,14.0,14.0,38,0.00,,,0.00,Wunderground v.1.15,2013-05-12 17:40:00,
2013-05-12 13:50:00,56.8,32.1,29.78,ESE,105,13.0,24.0,39,0.00,,,0.00,Wunderground v.1.15,2013-05-12 17:50:00,
2013-05-12 13:55:00,56.8,32.7,29.78,East,81,12.0,24.0,40,0.00,,,0.00,Wunderground v.1.15,2013-05-12 17:55:00,
2013-05-12 14:00:00,56.8,32.1,29.78,East,100,13.0,13.0,39,0.00,,,0.00,Wunderground v.1.15,2013-05-12 18:00:00,
2013-05-12 14:10:00,57.2,34.3,29.79,ESE,105,14.0,23.0,42,0.00,,,0.00,Wunderground v.1.15,2013-05-12 18:10:00,
2013-05-12 14:15:00,56.6,34.3,29.78,ESE,121,12.0,23.0,43,0.00,,,0.00,Wunderground v.1.15,2013-05-12 18:15:00,
2013-05-12 14:20:00,56.8,33.3,29.79,East,83,11.0,23.0,41,0.00,,,0.00,Wunderground v.1.15,2013-05-12 18:20:00,
2013-05-12 14:30:00,56.7,34.4,29.79,ESE,115,13.0,13.0,43,0.00,,,0.00,Wunderground v.1.15,2013-05-12 18:30:00,
2013-05-12 14:35:00,56.6,32.5,29.79,ESE,112,12.0,26.0,40,0.00,,,0.00,Wunderground v.1.15,2013-05-12 18:35:00,
2013-05-12 14:40:00,57.0,32.9,29.79,ESE,110,12.0,12.0,40,0.00,,,0.00,Wunderground v.1.15,2013-05-12 18:40:00,
2013-05-12 14:45:00,57.3,31.2,29.79,ESE,107,13.0,13.0,37,0.00,,,0.00,Wunderground v.1.15,2013-05-12 18:45:00,
2013-05-12 14:55:00,57.3,33.2,29.79,SE,135,15.0,26.0,40,0.00,,,0.00,Wunderground v.1.15,2013-05-12 18:55:00,
2013-05-12 15:00:00,57.5,34.0,29.79,SE,124,12.0,26.0,41,0.00,,,0.00,Wunderground v.1.15,2013-05-12 19:00:00,
2013-05-12 15:10:00,57.3,32.5,29.79,SE,142,13.0,26.0,39,0.00,,,0.00,Wunderground v.1.15,2013-05-12 19:10:00,
2013-05-12 15:20:00,57.7,29.5,29.79,SE,127,14.0,26.0,34,0.00,,,0.00,Wunderground v.1.15,2013-05-12 19:20:00,
2013-05-12 15:25:00,57.7,30.9,29.79,ESE,108,16.0,26.0,36,0.00,,,0.00,Wunderground v.1.15,2013-05-12 19:25:00,
2013-05-12 15:35:00,57.5,31.4,29.79,ESE,102,15.0,26.0,37,0.00,,,0.00,Wunderground v.1.15,2013-05-12 19:35:00,
2013-05-12 15:40:00,57.4,31.3,29.79,ESE,120,14.0,14.0,37,0.00,,,0.00,Wunderground v.1.15,2013-05-12 19:40:00,
2013-05-12 15:50:00,57.7,31.6,29.79,SE,138,15.0,26.0,37,0.00,,,0.00,Wunderground v.1.15,2013-05-12 19:50:00,
2013-05-12 15:55:00,57.5,32.1,29.79,East,85,14.0,26.0,38,0.00,,,0.00,Wunderground v.1.15,2013-05-12 19:55:00,
2013-05-12 16:00:00,57.6,32.8,29.79,East,82,12.0,25.0,39,0.00,,,0.00,Wunderground v.1.15,2013-05-12 20:00:00,
2013-05-12 16:10:00,57.1,31.7,29.80,East,83,14.0,25.0,38,0.00,,,0.00,Wunderground v.1.15,2013-05-12 20:10:00,
2013-05-12 16:20:00,57.2,32.4,29.79,ESE,117,12.0,12.0,39,0.00,,,0.00,Wunderground v.1.15,2013-05-12 20:20:00,
2013-05-12 16:25:00,57.3,31.9,29.80,SE,134,11.0,25.0,38,0.00,,,0.00,Wunderground v.1.15,2013-05-12 20:25:00,
2013-05-12 16:35:00,57.3,31.2,29.80,ESE,113,12.0,19.0,37,0.00,,,0.00,Wunderground v.1.15,2013-05-12 20:35:00,
2013-05-12 16:40:00,57.8,31.7,29.79,ESE,103,13.0,23.0,37,0.00,,,0.00,Wunderground v.1.15,2013-05-12 20:40:00,
2013-05-12 16:50:00,57.7,33.5,29.80,ENE,70,13.0,13.0,40,0.00,,,0.00,Wunderground v.1.15,2013-05-12 20:50:00,
2013-05-12 16:55:00,57.9,31.8,29.80,ESE,107,12.0,17.0,37,0.00,,,0.00,Wunderground v.1.15,2013-05-12 20:55:00,
2013-05-12 17:00:00,57.8,31.7,29.80,SE,129,11.0,23.0,37,0.00,,,0.00,Wunderground v.1.15,2013-05-12 21:00:00,
2013-05-12 17:10:00,58.3,31.4,29.80,ESE,110,12.0,12.0,36,0.00,,,0.00,Wunderground v.1.15,2013-05-12 21:10:00,
2013-05-12 17:20:00,58.1,31.9,29.80,East,90,12.0,12.0,37,0.00,,,0.00,Wunderground v.1.15,2013-05-12 21:20:00,
2013-05-12 17:25:00,58.0,30.5,29.81,ESE,115,13.0,15.0,35,0.00,,,0.00,Wunderground v.1.15,2013-05-12 21:25:00,
2013-05-12 17:35:00,57.5,29.3,29.81,ESE,120,12.0,22.0,34,0.00,,,0.00,Wunderground v.1.15,2013-05-12 21:35:00,
2013-05-12 17:40:00,57.9,29.7,29.81,East,96,13.0,22.0,34,0.00,,,0.00,Wunderground v.1.15,2013-05-12 21:40:00,
2013-05-12 17:50:00,57.9,31.1,29.81,ESE,117,11.0,22.0,36,0.00,,,0.00,Wunderground v.1.15,2013-05-12 21:50:00,
2013-05-12 18:00:00,58.0,26.7,29.82,SE,124,12.0,25.0,30,0.00,,,0.00,Wunderground v.1.15,2013-05-12 22:00:00,
2013-05-12 18:10:00,57.4,29.9,29.82,ESE,115,11.0,25.0,35,0.00,,,0.00,Wunderground v.1.15,2013-05-12 22:10:00,
2013-05-12 18:20:00,57.3,31.2,29.82,ENE,66,10.0,10.0,37,0.00,,,0.00,Wunderground v.1.15,2013-05-12 22:20:00,
2013-05-12 18:25:00,57.2,26.8,29.82,ESE,110,9.0,25.0,31,0.00,,,0.00,Wunderground v.1.15,2013-05-12 22:25:00,
2013-05-12 18:35:00,56.8,28.0,29.82,ESE,117,11.0,22.0,33,0.00,,,0.00,Wunderground v.1.15,2013-05-12 22:35:00,
2013-05-12 18:45:00,57.2,28.3,29.82,ESE,110,12.0,22.0,33,0.00,,,0.00,Wunderground v.1.15,2013-05-12 22:45:00,
2013-05-12 18:50:00,57.3,29.1,29.82,ESE,115,12.0,12.0,34,0.00,,,0.00,Wunderground v.1.15,2013-05-12 22:50:00,
2013-05-12 19:00:00,56.9,28.8,29.83,ESE,111,13.0,13.0,34,0.00,,,0.00,Wunderground v.1.15,2013-05-12 23:00:00,
2013-05-12 19:10:00,57.0,28.9,29.83,East,97,13.0,13.0,34,0.00,,,0.00,Wunderground v.1.15,2013-05-12 23:10:00,
2013-05-12 19:20:00,56.4,28.3,29.83,SE,124,11.0,11.0,34,0.00,,,0.00,Wunderground v.1.15,2013-05-12 23:20:00,
2013-05-12 19:30:00,56.0,28.7,29.84,ESE,104,11.0,11.0,35,0.00,,,0.00,Wunderground v.1.15,2013-05-12 23:30:00,
2013-05-12 19:35:00,56.1,28.1,29.84,ESE,110,10.0,22.0,34,0.00,,,0.00,Wunderground v.1.15,2013-05-12 23:35:00,
2013-05-12 19:45:00,55.7,29.1,29.85,ESE,110,7.0,12.0,36,0.00,,,0.00,Wunderground v.1.15,2013-05-12 23:45:00,
2013-05-12 19:50:00,55.3,29.4,29.85,ESE,117,8.0,22.0,37,0.00,,,0.00,Wunderground v.1.15,2013-05-12 23:50:00,
2013-05-12 20:00:00,54.6,28.8,29.85,ESE,111,10.0,10.0,37,0.00,,,0.00,Wunderground v.1.15,2013-05-13 00:00:00,
2013-05-12 20:10:00,54.1,28.4,29.86,ESE,113,8.0,22.0,37,0.00,,,0.00,Wunderground v.1.15,2013-05-13 00:10:00,
2013-05-12 20:15:00,53.9,27.5,29.86,SE,126,9.0,22.0,36,0.00,,,0.00,Wunderground v.1.15,2013-05-13 00:15:00,
2013-05-12 20:20:00,53.9,26.8,29.86,SE,129,9.0,9.0,35,0.00,,,0.00,Wunderground v.1.15,2013-05-13 00:20:00,
2013-05-12 20:30:00,53.6,27.9,29.86,ESE,116,8.0,8.0,37,0.00,,,0.00,Wunderground v.1.15,2013-05-13 00:30:00,
2013-05-12 20:35:00,53.3,28.3,29.86,ESE,114,7.0,11.0,38,0.00,,,0.00,Wunderground v.1.15,2013-05-13 00:35:00,
2013-05-12 20:45:00,52.8,29.1,29.87,ESE,108,7.0,19.0,40,0.00,,,0.00,Wunderground v.1.15,2013-05-13 00:45:00,
2013-05-12 20:50:00,52.5,29.5,29.87,ENE,78,7.0,19.0,41,0.00,,,0.00,Wunderground v.1.15,2013-05-13 00:50:00,
2013-05-12 20:55:00,52.3,29.9,29.88,East,96,6.0,19.0,42,0.00,,,0.00,Wunderground v.1.15,2013-05-13 00:55:00,
2013-05-12 21:00:00,52.0,30.2,29.88,ESE,117,6.0,16.0,43,0.00,,,0.00,Wunderground v.1.15,2013-05-13 01:00:00,
2013-05-12 21:10:00,51.8,30.0,29.89,ESE,115,7.0,7.0,43,0.00,,,0.00,Wunderground v.1.15,2013-05-13 01:10:00,
2013-05-12 21:20:00,51.6,30.4,29.90,SE,125,6.0,16.0,44,0.00,,,0.00,Wunderground v.1.15,2013-05-13 01:20:00,
2013-05-12 21:30:00,51.6,30.4,29.90,ESE,117,5.0,12.0,44,0.00,,,0.00,Wunderground v.1.15,2013-05-13 01:30:00,
2013-05-12 21:35:00,51.4,30.7,29.90,SE,132,6.0,12.0,45,0.00,,,0.00,Wunderground v.1.15,2013-05-13 01:35:00,
2013-05-12 21:45:00,51.3,30.7,29.91,ESE,120,6.0,7.0,45,0.00,,,0.00,Wunderground v.1.15,2013-05-13 01:45:00,
2013-05-12 21:50:00,51.3,30.1,29.92,SE,131,7.0,12.0,44,0.00,,,0.00,Wunderground v.1.15,2013-05-13 01:50:00,
2013-05-12 21:55:00,51.3,29.5,29.92,ESE,115,8.0,12.0,43,0.00,,,0.00,Wunderground v.1.15,2013-05-13 01:55:00,
2013-05-12 22:00:00,51.3,29.5,29.92,ESE,116,8.0,8.0,43,0.00,,,0.00,Wunderground v.1.15,2013-05-13 02:00:00,
2013-05-12 22:10:00,50.8,29.1,29.93,East,101,7.0,7.0,43,0.00,,,0.00,Wunderground v.1.15,2013-05-13 02:10:00,
2013-05-12 22:20:00,50.3,29.2,29.93,SE,131,5.0,5.0,44,0.00,,,0.00,Wunderground v.1.15,2013-05-13 02:20:00,
2013-05-12 22:25:00,50.1,29.0,29.93,East,82,5.0,17.0,44,0.00,,,0.00,Wunderground v.1.15,2013-05-13 02:25:00,
2013-05-12 22:30:00,50.0,29.5,29.93,ESE,110,5.0,5.0,45,0.00,,,0.00,Wunderground v.1.15,2013-05-13 02:30:00,
2013-05-12 22:40:00,49.8,29.3,29.94,ESE,108,4.0,15.0,45,0.00,,,0.00,Wunderground v.1.15,2013-05-13 02:40:00,
2013-05-12 22:45:00,49.8,29.3,29.94,ESE,114,4.0,15.0,45,0.00,,,0.00,Wunderground v.1.15,2013-05-13 02:45:00,
2013-05-12 22:50:00,49.6,29.6,29.94,East,101,4.0,15.0,46,0.00,,,0.00,Wunderground v.1.15,2013-05-13 02:50:00,
2013-05-12 23:00:00,49.2,29.3,29.94,East,93,5.0,11.0,46,0.00,,,0.00,Wunderground v.1.15,2013-05-13 03:00:00,
2013-05-12 23:10:00,49.0,29.6,29.94,ESE,114,4.0,11.0,47,0.00,,,0.00,Wunderground v.1.15,2013-05-13 03:10:00,
2013-05-12 23:15:00,49.1,29.2,29.94,ESE,110,5.0,11.0,46,0.00,,,0.00,Wunderground v.1.15,2013-05-13 03:15:00,
2013-05-12 23:25:00,49.1,29.2,29.94,ESE,110,5.0,7.0,46,0.00,,,0.00,Wunderground v.1.15,2013-05-13 03:25:00,
2013-05-12 23:30:00,49.1,29.7,29.95,SE,128,5.0,5.0,47,0.00,,,0.00,Wunderground v.1.15,2013-05-13 03:30:00,
2013-05-12 23:35:00,49.0,29.6,29.95,ESE,115,5.0,6.0,47,0.00,,,0.00,Wunderground v.1.15,2013-05-13 03:35:00,
2013-05-12 23:45:00,48.9,29.5,29.95,ESE,110,5.0,13.0,47,0.00,,,0.00,Wunderground v.1.15,2013-05-13 03:45:00,
2013-05-12 23:55:00,48.4,30.1,29.95,East,90,4.0,13.0,49,0.00,,,0.00,Wunderground v.1.15,2013-05-13 03:55:00,